sensor_id;sensor_type;location;lat;lon;timestamp;P1;durP1;ratioP1;P2;durP2;ratioP2
71955;SDS011;59829;50.562;6.258;2023-07-20T00:08:36;2.35;;;1.20;;
71955;SDS011;59829;50.562;6.258;2023-07-20T00:18:36;1.75;;;1.13;;
71955;SDS011;59829;50.562;6.258;2023-07-20T00:28:37;2.10;;;1.02;;
71955;SDS011;59829;50.562;6.258;2023-07-20T00:38:37;2.13;;;1.00;;
71955;SDS011;59829;50.562;6.258;2023-07-20T00:48:38;2.35;;;1.30;;
71955;SDS011;59829;50.562;6.258;2023-07-20T00:58:39;2.67;;;1.20;;
71955;SDS011;59829;50.562;6.258;2023-07-20T01:08:40;2.53;;;1.05;;
71955;SDS011;59829;50.562;6.258;2023-07-20T01:18:46;2.08;;;1.05;;
71955;SDS011;59829;50.562;6.258;2023-07-20T01:39:21;2.22;;;0.90;;
71955;SDS011;59829;50.562;6.258;2023-07-20T01:49:22;2.45;;;1.10;;
71955;SDS011;59829;50.562;6.258;2023-07-20T01:59:22;2.30;;;1.00;;
71955;SDS011;59829;50.562;6.258;2023-07-20T02:09:22;2.97;;;1.20;;
71955;SDS011;59829;50.562;6.258;2023-07-20T02:19:24;2.45;;;1.10;;
71955;SDS011;59829;50.562;6.258;2023-07-20T02:29:26;1.98;;;0.88;;
71955;SDS011;59829;50.562;6.258;2023-07-20T02:39:27;2.35;;;1.08;;
71955;SDS011;59829;50.562;6.258;2023-07-20T02:49:28;1.92;;;0.85;;
71955;SDS011;59829;50.562;6.258;2023-07-20T02:59:28;1.95;;;0.90;;
71955;SDS011;59829;50.562;6.258;2023-07-20T03:09:29;2.05;;;1.00;;
71955;SDS011;59829;50.562;6.258;2023-07-20T03:19:29;2.88;;;1.00;;
71955;SDS011;59829;50.562;6.258;2023-07-20T03:29:31;1.90;;;1.10;;
71955;SDS011;59829;50.562;6.258;2023-07-20T03:39:32;5.13;;;1.67;;
71955;SDS011;59829;50.562;6.258;2023-07-20T03:49:32;3.35;;;1.60;;
71955;SDS011;59829;50.562;6.258;2023-07-20T03:59:32;7.78;;;2.30;;
71955;SDS011;59829;50.562;6.258;2023-07-20T04:09:33;6.18;;;2.38;;
71955;SDS011;59829;50.562;6.258;2023-07-20T04:19:34;9.20;;;3.22;;
71955;SDS011;59829;50.562;6.258;2023-07-20T04:29:34;6.75;;;2.80;;
71955;SDS011;59829;50.562;6.258;2023-07-20T04:39:34;8.02;;;2.70;;
71955;SDS011;59829;50.562;6.258;2023-07-20T04:49:35;6.43;;;3.17;;
71955;SDS011;59829;50.562;6.258;2023-07-20T04:59:35;6.80;;;2.90;;
71955;SDS011;59829;50.562;6.258;2023-07-20T05:09:35;5.78;;;2.55;;
71955;SDS011;59829;50.562;6.258;2023-07-20T05:19:36;7.13;;;3.15;;
71955;SDS011;59829;50.562;6.258;2023-07-20T05:29:36;6.13;;;2.90;;
71955;SDS011;59829;50.562;6.258;2023-07-20T05:39:36;5.53;;;3.00;;
71955;SDS011;59829;50.562;6.258;2023-07-20T05:49:36;4.72;;;2.50;;
71955;SDS011;59829;50.562;6.258;2023-07-20T05:59:37;4.75;;;2.30;;
71955;SDS011;59829;50.562;6.258;2023-07-20T06:09:38;5.35;;;2.38;;
71955;SDS011;59829;50.562;6.258;2023-07-20T06:19:38;3.53;;;2.20;;
71955;SDS011;59829;50.562;6.258;2023-07-20T06:29:38;3.28;;;1.90;;
71955;SDS011;59829;50.562;6.258;2023-07-20T06:39:39;4.15;;;2.30;;
71955;SDS011;59829;50.562;6.258;2023-07-20T06:49:40;4.95;;;2.30;;
71955;SDS011;59829;50.562;6.258;2023-07-20T06:59:41;2.40;;;1.42;;
71955;SDS011;59829;50.562;6.258;2023-07-20T07:09:41;4.72;;;1.83;;
71955;SDS011;59829;50.562;6.258;2023-07-20T07:19:42;3.28;;;1.80;;
71955;SDS011;59829;50.562;6.258;2023-07-20T07:29:42;3.28;;;1.80;;
71955;SDS011;59829;50.562;6.258;2023-07-20T07:39:46;2.28;;;1.48;;
71955;SDS011;59829;50.562;6.258;2023-07-20T07:49:49;2.03;;;1.50;;
71955;SDS011;59829;50.562;6.258;2023-07-20T07:59:50;3.67;;;1.60;;
71955;SDS011;59829;50.562;6.258;2023-07-20T08:09:50;2.05;;;1.50;;
71955;SDS011;59829;50.562;6.258;2023-07-20T08:19:50;2.08;;;1.30;;
71955;SDS011;59829;50.562;6.258;2023-07-20T08:29:51;3.95;;;1.60;;
71955;SDS011;59829;50.562;6.258;2023-07-20T08:39:51;1.50;;;1.17;;
71955;SDS011;59829;50.562;6.258;2023-07-20T08:49:51;3.08;;;1.58;;
71955;SDS011;59829;50.562;6.258;2023-07-20T08:59:53;2.27;;;1.40;;
71955;SDS011;59829;50.562;6.258;2023-07-20T09:09:56;1.52;;;1.10;;
71955;SDS011;59829;50.562;6.258;2023-07-20T09:19:57;1.80;;;1.10;;
71955;SDS011;59829;50.562;6.258;2023-07-20T09:29:57;1.90;;;1.15;;
71955;SDS011;59829;50.562;6.258;2023-07-20T09:39:58;2.22;;;1.08;;
71955;SDS011;59829;50.562;6.258;2023-07-20T09:49:59;1.90;;;1.30;;
71955;SDS011;59829;50.562;6.258;2023-07-20T10:00:04;1.98;;;1.30;;
71955;SDS011;59829;50.562;6.258;2023-07-20T10:10:13;2.97;;;1.20;;
71955;SDS011;59829;50.562;6.258;2023-07-20T10:20:17;1.88;;;0.90;;
71955;SDS011;59829;50.562;6.258;2023-07-20T10:30:21;3.45;;;1.17;;
71955;SDS011;59829;50.562;6.258;2023-07-20T10:40:25;1.07;;;0.80;;
71955;SDS011;59829;50.562;6.258;2023-07-20T10:50:33;1.17;;;0.88;;
71955;SDS011;59829;50.562;6.258;2023-07-20T11:00:34;1.17;;;0.80;;
71955;SDS011;59829;50.562;6.258;2023-07-20T11:10:34;1.30;;;0.88;;
71955;SDS011;59829;50.562;6.258;2023-07-20T11:20:35;1.27;;;0.80;;
71955;SDS011;59829;50.562;6.258;2023-07-20T11:30:37;0.70;;;0.63;;
71955;SDS011;59829;50.562;6.258;2023-07-20T11:40:44;1.52;;;0.82;;
71955;SDS011;59829;50.562;6.258;2023-07-20T11:50:45;1.30;;;0.90;;
71955;SDS011;59829;50.562;6.258;2023-07-20T12:00:47;2.33;;;1.10;;
71955;SDS011;59829;50.562;6.258;2023-07-20T12:10:48;1.00;;;0.80;;
71955;SDS011;59829;50.562;6.258;2023-07-20T12:20:48;1.37;;;0.90;;
71955;SDS011;59829;50.562;6.258;2023-07-20T12:30:59;1.35;;;0.82;;
71955;SDS011;59829;50.562;6.258;2023-07-20T12:41:02;0.95;;;0.70;;
71955;SDS011;59829;50.562;6.258;2023-07-20T12:51:03;0.73;;;0.57;;
71955;SDS011;59829;50.562;6.258;2023-07-20T13:01:04;2.25;;;0.75;;
71955;SDS011;59829;50.562;6.258;2023-07-20T13:11:04;1.95;;;0.50;;
71955;SDS011;59829;50.562;6.258;2023-07-20T13:21:05;1.20;;;0.73;;
71955;SDS011;59829;50.562;6.258;2023-07-20T13:31:10;1.17;;;0.80;;
71955;SDS011;59829;50.562;6.258;2023-07-20T13:41:10;1.33;;;0.75;;
71955;SDS011;59829;50.562;6.258;2023-07-20T13:51:11;0.65;;;0.50;;
71955;SDS011;59829;50.562;6.258;2023-07-20T14:01:11;0.90;;;0.60;;
71955;SDS011;59829;50.562;6.258;2023-07-20T14:11:15;0.82;;;0.70;;
71955;SDS011;59829;50.562;6.258;2023-07-20T14:21:16;0.98;;;0.60;;
71955;SDS011;59829;50.562;6.258;2023-07-20T14:31:17;0.80;;;0.67;;
71955;SDS011;59829;50.562;6.258;2023-07-20T14:51:20;1.50;;;0.50;;
71955;SDS011;59829;50.562;6.258;2023-07-20T15:01:20;0.88;;;0.55;;
71955;SDS011;59829;50.562;6.258;2023-07-20T15:11:21;1.25;;;0.63;;
71955;SDS011;59829;50.562;6.258;2023-07-20T15:21:21;2.17;;;0.60;;
71955;SDS011;59829;50.562;6.258;2023-07-20T15:31:23;0.77;;;0.55;;
71955;SDS011;59829;50.562;6.258;2023-07-20T15:41:24;0.63;;;0.50;;
71955;SDS011;59829;50.562;6.258;2023-07-20T15:51:24;0.98;;;0.60;;
71955;SDS011;59829;50.562;6.258;2023-07-20T16:01:24;0.80;;;0.55;;
71955;SDS011;59829;50.562;6.258;2023-07-20T16:11:25;0.70;;;0.60;;
71955;SDS011;59829;50.562;6.258;2023-07-20T16:21:25;1.45;;;0.60;;
71955;SDS011;59829;50.562;6.258;2023-07-20T16:31:26;2.03;;;0.57;;
71955;SDS011;59829;50.562;6.258;2023-07-20T16:41:26;1.42;;;0.70;;
71955;SDS011;59829;50.562;6.258;2023-07-20T16:51:27;1.75;;;0.70;;
71955;SDS011;59829;50.562;6.258;2023-07-20T17:01:27;1.15;;;0.60;;
71955;SDS011;59829;50.562;6.258;2023-07-20T17:11:27;0.80;;;0.70;;
71955;SDS011;59829;50.562;6.258;2023-07-20T17:21:28;0.65;;;0.65;;
71955;SDS011;59829;50.562;6.258;2023-07-20T17:31:31;1.00;;;0.63;;
71955;SDS011;59829;50.562;6.258;2023-07-20T17:41:31;1.00;;;0.60;;
71955;SDS011;59829;50.562;6.258;2023-07-20T17:51:32;1.05;;;0.70;;
71955;SDS011;59829;50.562;6.258;2023-07-20T18:01:32;0.60;;;0.43;;
71955;SDS011;59829;50.562;6.258;2023-07-20T18:11:32;1.20;;;0.73;;
71955;SDS011;59829;50.562;6.258;2023-07-20T18:21:33;0.73;;;0.50;;
71955;SDS011;59829;50.562;6.258;2023-07-20T18:31:33;2.10;;;0.50;;
71955;SDS011;59829;50.562;6.258;2023-07-20T18:41:33;0.60;;;0.50;;
71955;SDS011;59829;50.562;6.258;2023-07-20T18:51:34;1.00;;;0.52;;
71955;SDS011;59829;50.562;6.258;2023-07-20T19:01:34;0.80;;;0.63;;
71955;SDS011;59829;50.562;6.258;2023-07-20T19:11:35;0.60;;;0.57;;
71955;SDS011;59829;50.562;6.258;2023-07-20T19:21:35;1.15;;;0.60;;
71955;SDS011;59829;50.562;6.258;2023-07-20T19:31:35;0.50;;;0.50;;
71955;SDS011;59829;50.562;6.258;2023-07-20T19:41:36;1.02;;;0.80;;
71955;SDS011;59829;50.562;6.258;2023-07-20T19:51:36;2.65;;;1.20;;
71955;SDS011;59829;50.562;6.258;2023-07-20T20:01:37;1.50;;;1.20;;
71955;SDS011;59829;50.562;6.258;2023-07-20T20:11:38;1.65;;;1.10;;
71955;SDS011;59829;50.562;6.258;2023-07-20T20:21:38;1.83;;;1.50;;
71955;SDS011;59829;50.562;6.258;2023-07-20T20:31:38;1.70;;;1.50;;
71955;SDS011;59829;50.562;6.258;2023-07-20T20:41:39;1.95;;;1.65;;
71955;SDS011;59829;50.562;6.258;2023-07-20T20:51:46;2.45;;;1.98;;
71955;SDS011;59829;50.562;6.258;2023-07-20T21:01:47;2.42;;;1.88;;
71955;SDS011;59829;50.562;6.258;2023-07-20T21:21:50;2.90;;;1.88;;
71955;SDS011;59829;50.562;6.258;2023-07-20T21:31:50;3.00;;;2.20;;
71955;SDS011;59829;50.562;6.258;2023-07-20T21:41:50;3.10;;;2.10;;
71955;SDS011;59829;50.562;6.258;2023-07-20T21:51:50;4.25;;;2.80;;
71955;SDS011;59829;50.562;6.258;2023-07-20T22:01:51;3.95;;;2.50;;
71955;SDS011;59829;50.562;6.258;2023-07-20T22:11:51;3.83;;;2.20;;
71955;SDS011;59829;50.562;6.258;2023-07-20T22:21:52;3.40;;;2.00;;
71955;SDS011;59829;50.562;6.258;2023-07-20T22:31:53;3.28;;;2.28;;
71955;SDS011;59829;50.562;6.258;2023-07-20T22:41:53;3.60;;;2.50;;
71955;SDS011;59829;50.562;6.258;2023-07-20T22:51:54;4.72;;;2.60;;
71955;SDS011;59829;50.562;6.258;2023-07-20T23:01:54;4.50;;;2.40;;
71955;SDS011;59829;50.562;6.258;2023-07-20T23:11:54;3.20;;;2.10;;
71955;SDS011;59829;50.562;6.258;2023-07-20T23:21:55;4.10;;;2.70;;
71955;SDS011;59829;50.562;6.258;2023-07-20T23:31:57;3.63;;;2.45;;
71955;SDS011;59829;50.562;6.258;2023-07-20T23:41:57;3.72;;;2.63;;
71955;SDS011;59829;50.562;6.258;2023-07-20T23:51:59;3.57;;;2.53;;
